sensor_id;sensor_type;location;lat;lon;timestamp;pressure;altitude;pressure_sealevel;temperature;humidity
37068;BME280;22982;42.848;25.468;2024-03-08T00:01:41;96393.31;;;3.25;100.00
37068;BME280;22982;42.848;25.468;2024-03-08T00:06:46;96386.94;;;3.37;100.00
37068;BME280;22982;42.848;25.468;2024-03-08T00:11:50;96375.75;;;3.35;100.00
37068;BME280;22982;42.848;25.468;2024-03-08T00:16:54;96375.66;;;3.38;100.00
37068;BME280;22982;42.848;25.468;2024-03-08T00:21:57;96375.53;;;3.42;100.00
37068;BME280;22982;42.848;25.468;2024-03-08T00:27:00;96377.78;;;3.53;100.00
37068;BME280;22982;42.848;25.468;2024-03-08T00:32:04;96379.75;;;3.45;100.00
37068;BME280;22982;42.848;25.468;2024-03-08T00:37:07;96376.41;;;3.41;100.00
37068;BME280;22982;42.848;25.468;2024-03-08T00:42:11;96364.28;;;3.43;100.00
37068;BME280;22982;42.848;25.468;2024-03-08T00:47:13;96378.22;;;3.68;100.00
37068;BME280;22982;42.848;25.468;2024-03-08T00:52:17;96359.13;;;3.42;100.00
37068;BME280;22982;42.848;25.468;2024-03-08T00:57:20;96374.13;;;3.60;100.00
37068;BME280;22982;42.848;25.468;2024-03-08T01:02:24;96369.69;;;3.64;100.00
37068;BME280;22982;42.848;25.468;2024-03-08T01:07:27;96372.31;;;3.62;100.00
37068;BME280;22982;42.848;25.468;2024-03-08T01:12:30;96378.84;;;3.76;100.00
37068;BME280;22982;42.848;25.468;2024-03-08T01:17:33;96384.25;;;3.68;100.00
37068;BME280;22982;42.848;25.468;2024-03-08T01:22:35;96366.22;;;3.65;100.00
37068;BME280;22982;42.848;25.468;2024-03-08T01:27:38;96376.91;;;3.81;100.00
37068;BME280;22982;42.848;25.468;2024-03-08T01:32:41;96370.81;;;3.83;100.00
37068;BME280;22982;42.848;25.468;2024-03-08T01:37:44;96366.53;;;3.81;100.00
37068;BME280;22982;42.848;25.468;2024-03-08T01:42:48;96378.59;;;3.83;100.00
37068;BME280;22982;42.848;25.468;2024-03-08T01:47:50;96375.31;;;3.77;100.00
37068;BME280;22982;42.848;25.468;2024-03-08T01:52:53;96373.56;;;3.77;100.00
37068;BME280;22982;42.848;25.468;2024-03-08T01:57:58;96381.34;;;3.77;100.00
37068;BME280;22982;42.848;25.468;2024-03-08T02:03:01;96387.22;;;3.84;100.00
37068;BME280;22982;42.848;25.468;2024-03-08T02:08:06;96389.53;;;3.92;100.00
37068;BME280;22982;42.848;25.468;2024-03-08T02:13:09;96378.25;;;3.94;100.00
37068;BME280;22982;42.848;25.468;2024-03-08T02:18:13;96370.56;;;3.91;100.00
37068;BME280;22982;42.848;25.468;2024-03-08T02:23:16;96369.31;;;3.76;100.00
37068;BME280;22982;42.848;25.468;2024-03-08T02:28:20;96377.66;;;3.84;100.00
37068;BME280;22982;42.848;25.468;2024-03-08T02:33:23;96386.53;;;3.77;100.00
37068;BME280;22982;42.848;25.468;2024-03-08T02:38:26;96379.00;;;3.70;100.00
37068;BME280;22982;42.848;25.468;2024-03-08T02:43:31;96383.53;;;3.63;100.00
37068;BME280;22982;42.848;25.468;2024-03-08T02:48:33;96376.66;;;3.62;100.00
37068;BME280;22982;42.848;25.468;2024-03-08T02:53:36;96387.59;;;3.72;100.00
37068;BME280;22982;42.848;25.468;2024-03-08T02:58:39;96383.28;;;3.72;100.00
37068;BME280;22982;42.848;25.468;2024-03-08T03:03:42;96374.41;;;3.79;100.00
37068;BME280;22982;42.848;25.468;2024-03-08T03:08:45;96371.44;;;3.90;100.00
37068;BME280;22982;42.848;25.468;2024-03-08T03:13:48;96364.56;;;3.89;100.00
37068;BME280;22982;42.848;25.468;2024-03-08T03:18:51;96377.84;;;3.80;100.00
37068;BME280;22982;42.848;25.468;2024-03-08T03:23:54;96375.13;;;3.83;100.00
37068;BME280;22982;42.848;25.468;2024-03-08T03:28:57;96360.69;;;3.76;100.00
37068;BME280;22982;42.848;25.468;2024-03-08T03:33:59;96371.63;;;3.84;100.00
37068;BME280;22982;42.848;25.468;2024-03-08T03:39:05;96373.22;;;3.88;100.00
37068;BME280;22982;42.848;25.468;2024-03-08T03:44:18;96367.25;;;3.86;100.00
37068;BME280;22982;42.848;25.468;2024-03-08T03:49:21;96373.44;;;3.82;100.00
37068;BME280;22982;42.848;25.468;2024-03-08T03:54:24;96363.16;;;3.79;100.00
37068;BME280;22982;42.848;25.468;2024-03-08T03:59:28;96383.72;;;3.85;100.00
37068;BME280;22982;42.848;25.468;2024-03-08T04:04:30;96372.91;;;3.72;100.00
37068;BME280;22982;42.848;25.468;2024-03-08T04:09:35;96382.19;;;3.79;100.00
37068;BME280;22982;42.848;25.468;2024-03-08T04:14:40;96372.66;;;3.80;100.00
37068;BME280;22982;42.848;25.468;2024-03-08T04:19:43;96395.06;;;3.81;100.00
37068;BME280;22982;42.848;25.468;2024-03-08T04:24:46;96396.41;;;3.66;100.00
37068;BME280;22982;42.848;25.468;2024-03-08T04:29:49;96400.44;;;3.76;100.00
37068;BME280;22982;42.848;25.468;2024-03-08T04:34:51;96390.19;;;3.72;100.00
37068;BME280;22982;42.848;25.468;2024-03-08T04:39:54;96403.03;;;3.76;100.00
37068;BME280;22982;42.848;25.468;2024-03-08T04:44:56;96397.84;;;3.76;100.00
37068;BME280;22982;42.848;25.468;2024-03-08T04:50:00;96406.38;;;3.80;100.00
37068;BME280;22982;42.848;25.468;2024-03-08T04:55:02;96406.38;;;3.80;100.00
37068;BME280;22982;42.848;25.468;2024-03-08T05:00:08;96388.25;;;3.78;100.00
37068;BME280;22982;42.848;25.468;2024-03-08T05:05:14;96400.56;;;3.72;100.00
37068;BME280;22982;42.848;25.468;2024-03-08T05:10:17;96415.69;;;3.57;100.00
37068;BME280;22982;42.848;25.468;2024-03-08T05:15:20;96431.63;;;3.73;100.00
37068;BME280;22982;42.848;25.468;2024-03-08T05:20:22;96429.75;;;3.78;100.00
37068;BME280;22982;42.848;25.468;2024-03-08T05:25:24;96447.03;;;3.79;100.00
37068;BME280;22982;42.848;25.468;2024-03-08T05:30:28;96438.81;;;3.65;100.00
37068;BME280;22982;42.848;25.468;2024-03-08T05:35:31;96445.84;;;3.61;100.00
37068;BME280;22982;42.848;25.468;2024-03-08T05:40:34;96454.06;;;3.76;100.00
37068;BME280;22982;42.848;25.468;2024-03-08T05:45:37;96458.00;;;3.88;100.00
37068;BME280;22982;42.848;25.468;2024-03-08T05:50:40;96453.69;;;3.87;100.00
37068;BME280;22982;42.848;25.468;2024-03-08T05:55:46;96451.06;;;3.88;100.00
37068;BME280;22982;42.848;25.468;2024-03-08T06:00:48;96470.75;;;3.94;100.00
37068;BME280;22982;42.848;25.468;2024-03-08T06:05:54;96472.75;;;3.86;100.00
37068;BME280;22982;42.848;25.468;2024-03-08T06:10:58;96479.78;;;3.82;100.00
37068;BME280;22982;42.848;25.468;2024-03-08T06:16:01;96469.75;;;3.71;100.00
37068;BME280;22982;42.848;25.468;2024-03-08T06:21:08;96479.41;;;3.66;100.00
37068;BME280;22982;42.848;25.468;2024-03-08T06:26:16;96490.47;;;3.71;100.00
37068;BME280;22982;42.848;25.468;2024-03-08T06:31:19;96486.41;;;3.62;100.00
37068;BME280;22982;42.848;25.468;2024-03-08T06:36:22;96497.31;;;3.44;100.00
37068;BME280;22982;42.848;25.468;2024-03-08T06:41:25;96506.59;;;3.53;100.00
37068;BME280;22982;42.848;25.468;2024-03-08T06:46:27;96510.75;;;3.58;100.00
37068;BME280;22982;42.848;25.468;2024-03-08T06:51:30;96510.66;;;3.61;100.00
37068;BME280;22982;42.848;25.468;2024-03-08T06:56:33;96522.75;;;3.61;100.00
37068;BME280;22982;42.848;25.468;2024-03-08T07:01:35;96532.47;;;3.84;100.00
37068;BME280;22982;42.848;25.468;2024-03-08T07:06:39;96525.75;;;3.77;100.00
37068;BME280;22982;42.848;25.468;2024-03-08T07:11:43;96527.19;;;3.87;100.00
37068;BME280;22982;42.848;25.468;2024-03-08T07:16:46;96528.16;;;3.83;100.00
37068;BME280;22982;42.848;25.468;2024-03-08T07:21:49;96534.44;;;3.76;100.00
37068;BME280;22982;42.848;25.468;2024-03-08T07:26:52;96526.91;;;3.96;100.00
37068;BME280;22982;42.848;25.468;2024-03-08T07:31:54;96537.81;;;4.08;100.00
37068;BME280;22982;42.848;25.468;2024-03-08T07:37:17;96542.41;;;3.99;100.00
37068;BME280;22982;42.848;25.468;2024-03-08T07:42:21;96543.88;;;3.78;100.00
37068;BME280;22982;42.848;25.468;2024-03-08T07:47:25;96561.84;;;3.84;100.00
37068;BME280;22982;42.848;25.468;2024-03-08T07:52:28;96547.66;;;3.67;100.00
37068;BME280;22982;42.848;25.468;2024-03-08T07:57:31;96553.28;;;3.81;100.00
37068;BME280;22982;42.848;25.468;2024-03-08T08:02:35;96556.66;;;3.84;100.00
37068;BME280;22982;42.848;25.468;2024-03-08T08:07:44;96559.97;;;3.60;100.00
37068;BME280;22982;42.848;25.468;2024-03-08T08:12:51;96562.91;;;3.77;100.00
37068;BME280;22982;42.848;25.468;2024-03-08T08:17:56;96571.00;;;3.67;100.00
37068;BME280;22982;42.848;25.468;2024-03-08T08:22:59;96566.03;;;3.59;100.00
37068;BME280;22982;42.848;25.468;2024-03-08T08:28:01;96571.09;;;3.63;100.00
37068;BME280;22982;42.848;25.468;2024-03-08T08:33:06;96569.63;;;3.84;100.00
37068;BME280;22982;42.848;25.468;2024-03-08T08:38:11;96575.75;;;3.82;100.00
37068;BME280;22982;42.848;25.468;2024-03-08T08:43:13;96579.22;;;3.81;100.00
37068;BME280;22982;42.848;25.468;2024-03-08T08:48:16;96580.75;;;3.88;100.00
37068;BME280;22982;42.848;25.468;2024-03-08T08:53:19;96583.25;;;3.93;100.00
37068;BME280;22982;42.848;25.468;2024-03-08T08:58:22;96577.38;;;3.86;100.00
37068;BME280;22982;42.848;25.468;2024-03-08T09:03:24;96580.59;;;3.94;100.00
37068;BME280;22982;42.848;25.468;2024-03-08T09:08:29;96579.59;;;3.98;100.00
37068;BME280;22982;42.848;25.468;2024-03-08T09:13:34;96580.34;;;4.03;100.00
37068;BME280;22982;42.848;25.468;2024-03-08T09:18:36;96577.09;;;3.95;100.00
37068;BME280;22982;42.848;25.468;2024-03-08T09:23:39;96593.84;;;4.15;100.00
37068;BME280;22982;42.848;25.468;2024-03-08T09:28:43;96595.94;;;4.02;100.00
37068;BME280;22982;42.848;25.468;2024-03-08T09:33:47;96599.38;;;4.02;100.00
37068;BME280;22982;42.848;25.468;2024-03-08T09:38:50;96586.81;;;3.89;100.00
37068;BME280;22982;42.848;25.468;2024-03-08T09:43:53;96604.84;;;3.93;100.00
37068;BME280;22982;42.848;25.468;2024-03-08T09:48:58;96610.78;;;3.97;100.00
37068;BME280;22982;42.848;25.468;2024-03-08T09:54:03;96606.91;;;3.82;100.00
37068;BME280;22982;42.848;25.468;2024-03-08T09:59:21;96613.09;;;3.76;100.00
37068;BME280;22982;42.848;25.468;2024-03-08T10:10:00;96621.19;;;3.95;100.00
37068;BME280;22982;42.848;25.468;2024-03-08T10:15:08;96613.06;;;4.08;100.00
37068;BME280;22982;42.848;25.468;2024-03-08T10:20:17;96618.59;;;4.27;100.00
37068;BME280;22982;42.848;25.468;2024-03-08T10:25:21;96615.09;;;3.98;100.00
37068;BME280;22982;42.848;25.468;2024-03-08T10:30:23;96614.22;;;3.68;100.00
37068;BME280;22982;42.848;25.468;2024-03-08T10:35:26;96612.97;;;3.81;100.00
37068;BME280;22982;42.848;25.468;2024-03-08T10:40:29;96609.53;;;3.80;100.00
37068;BME280;22982;42.848;25.468;2024-03-08T10:46:08;96617.59;;;3.70;100.00
37068;BME280;22982;42.848;25.468;2024-03-08T10:51:16;96609.53;;;3.80;100.00
37068;BME280;22982;42.848;25.468;2024-03-08T10:56:19;96601.25;;;3.97;100.00
37068;BME280;22982;42.848;25.468;2024-03-08T11:01:22;96604.47;;;3.76;100.00
37068;BME280;22982;42.848;25.468;2024-03-08T11:11:41;96582.63;;;3.83;100.00
37068;BME280;22982;42.848;25.468;2024-03-08T11:16:44;96589.34;;;4.20;100.00
37068;BME280;22982;42.848;25.468;2024-03-08T11:21:57;96603.59;;;4.07;100.00
37068;BME280;22982;42.848;25.468;2024-03-08T11:26:59;96590.19;;;4.20;100.00
37068;BME280;22982;42.848;25.468;2024-03-08T11:37:20;96592.03;;;4.47;100.00
37068;BME280;22982;42.848;25.468;2024-03-08T11:42:25;96577.69;;;4.33;100.00
37068;BME280;22982;42.848;25.468;2024-03-08T11:47:30;96579.50;;;4.31;100.00
37068;BME280;22982;42.848;25.468;2024-03-08T11:52:33;96579.03;;;4.18;100.00
37068;BME280;22982;42.848;25.468;2024-03-08T11:57:37;96569.13;;;4.03;100.00
37068;BME280;22982;42.848;25.468;2024-03-08T12:02:40;96580.72;;;4.19;100.00
37068;BME280;22982;42.848;25.468;2024-03-08T12:07:44;96576.66;;;4.11;100.00
37068;BME280;22982;42.848;25.468;2024-03-08T12:12:58;96591.38;;;4.10;100.00
37068;BME280;22982;42.848;25.468;2024-03-08T12:18:06;96584.75;;;4.00;100.00
37068;BME280;22982;42.848;25.468;2024-03-08T12:23:14;96594.03;;;4.09;100.00
37068;BME280;22982;42.848;25.468;2024-03-08T12:28:19;96579.94;;;4.17;100.00
37068;BME280;22982;42.848;25.468;2024-03-08T12:33:24;96578.63;;;4.32;100.00
37068;BME280;22982;42.848;25.468;2024-03-08T12:38:29;96577.78;;;4.58;100.00
37068;BME280;22982;42.848;25.468;2024-03-08T12:43:34;96584.41;;;4.69;100.00
37068;BME280;22982;42.848;25.468;2024-03-08T12:48:37;96574.22;;;4.63;100.00
37068;BME280;22982;42.848;25.468;2024-03-08T12:53:42;96572.50;;;4.62;100.00
37068;BME280;22982;42.848;25.468;2024-03-08T12:58:46;96572.34;;;4.39;100.00
37068;BME280;22982;42.848;25.468;2024-03-08T13:03:49;96570.88;;;4.59;100.00
37068;BME280;22982;42.848;25.468;2024-03-08T13:08:53;96585.22;;;4.69;100.00
37068;BME280;22982;42.848;25.468;2024-03-08T13:13:55;96576.16;;;4.83;100.00
37068;BME280;22982;42.848;25.468;2024-03-08T13:19:00;96568.56;;;4.76;100.00
37068;BME280;22982;42.848;25.468;2024-03-08T13:24:03;96567.16;;;4.66;100.00
37068;BME280;22982;42.848;25.468;2024-03-08T13:29:06;96569.50;;;4.74;100.00
37068;BME280;22982;42.848;25.468;2024-03-08T13:34:09;96572.53;;;4.60;100.00
37068;BME280;22982;42.848;25.468;2024-03-08T13:39:13;96581.81;;;4.40;100.00
37068;BME280;22982;42.848;25.468;2024-03-08T13:44:18;96577.56;;;4.38;100.00
37068;BME280;22982;42.848;25.468;2024-03-08T13:49:20;96584.94;;;4.52;100.00
37068;BME280;22982;42.848;25.468;2024-03-08T13:54:24;96583.28;;;4.49;100.00
37068;BME280;22982;42.848;25.468;2024-03-08T13:59:27;96581.09;;;4.35;100.00
37068;BME280;22982;42.848;25.468;2024-03-08T14:04:31;96579.03;;;4.18;100.00
37068;BME280;22982;42.848;25.468;2024-03-08T14:09:34;96586.28;;;4.35;100.00
37068;BME280;22982;42.848;25.468;2024-03-08T14:14:41;96579.66;;;3.97;100.00
37068;BME280;22982;42.848;25.468;2024-03-08T14:19:46;96577.09;;;3.95;100.00
37068;BME280;22982;42.848;25.468;2024-03-08T14:24:50;96567.19;;;3.80;100.00
37068;BME280;22982;42.848;25.468;2024-03-08T14:29:53;96579.22;;;3.81;100.00
37068;BME280;22982;42.848;25.468;2024-03-08T14:34:57;96573.09;;;3.85;100.00
37068;BME280;22982;42.848;25.468;2024-03-08T14:40:01;96576.28;;;3.93;100.00
37068;BME280;22982;42.848;25.468;2024-03-08T14:45:04;96576.09;;;3.70;100.00
37068;BME280;22982;42.848;25.468;2024-03-08T14:50:09;96574.16;;;3.78;100.00
37068;BME280;22982;42.848;25.468;2024-03-08T14:55:11;96579.34;;;3.78;100.00
37068;BME280;22982;42.848;25.468;2024-03-08T15:00:19;96568.72;;;3.87;100.00
37068;BME280;22982;42.848;25.468;2024-03-08T15:05:37;96574.31;;;4.03;100.00
37068;BME280;22982;42.848;25.468;2024-03-08T15:10:44;96567.88;;;4.15;100.00
37068;BME280;22982;42.848;25.468;2024-03-08T15:15:47;96560.91;;;3.87;100.00
37068;BME280;22982;42.848;25.468;2024-03-08T15:20:53;96581.66;;;4.17;100.00
37068;BME280;22982;42.848;25.468;2024-03-08T15:25:57;96574.22;;;4.05;100.00
37068;BME280;22982;42.848;25.468;2024-03-08T15:31:00;96585.03;;;3.91;100.00
37068;BME280;22982;42.848;25.468;2024-03-08T15:36:07;96596.31;;;3.88;100.00
37068;BME280;22982;42.848;25.468;2024-03-08T15:41:14;96598.13;;;3.55;100.00
37068;BME280;22982;42.848;25.468;2024-03-08T15:46:16;96603.75;;;3.71;100.00
37068;BME280;22982;42.848;25.468;2024-03-08T15:51:25;96619.31;;;3.71;100.00
37068;BME280;22982;42.848;25.468;2024-03-08T15:56:28;96621.72;;;3.77;100.00
37068;BME280;22982;42.848;25.468;2024-03-08T16:01:32;96618.25;;;3.45;100.00
37068;BME280;22982;42.848;25.468;2024-03-08T16:06:35;96635.75;;;3.70;100.00
37068;BME280;22982;42.848;25.468;2024-03-08T16:11:39;96621.88;;;3.72;100.00
37068;BME280;22982;42.848;25.468;2024-03-08T16:16:42;96630.94;;;3.56;100.00
37068;BME280;22982;42.848;25.468;2024-03-08T16:21:45;96616.06;;;3.62;100.00
37068;BME280;22982;42.848;25.468;2024-03-08T16:26:49;96628.97;;;3.66;100.00
37068;BME280;22982;42.848;25.468;2024-03-08T16:31:53;96638.28;;;3.73;100.00
37068;BME280;22982;42.848;25.468;2024-03-08T16:36:57;96634.09;;;3.67;100.00
37068;BME280;22982;42.848;25.468;2024-03-08T16:42:00;96641.56;;;3.79;100.00
37068;BME280;22982;42.848;25.468;2024-03-08T16:47:07;96622.44;;;3.51;100.00
37068;BME280;22982;42.848;25.468;2024-03-08T16:52:10;96649.38;;;3.78;100.00
37068;BME280;22982;42.848;25.468;2024-03-08T16:57:13;96650.34;;;3.74;100.00
37068;BME280;22982;42.848;25.468;2024-03-08T17:02:16;96641.84;;;3.69;100.00
37068;BME280;22982;42.848;25.468;2024-03-08T17:07:19;96661.47;;;3.77;100.00
37068;BME280;22982;42.848;25.468;2024-03-08T17:12:23;96663.16;;;3.80;100.00
37068;BME280;22982;42.848;25.468;2024-03-08T17:17:26;96671.25;;;3.68;100.00
37068;BME280;22982;42.848;25.468;2024-03-08T17:22:29;96652.03;;;3.75;100.00
37068;BME280;22982;42.848;25.468;2024-03-08T17:27:32;96666.06;;;3.68;100.00
37068;BME280;22982;42.848;25.468;2024-03-08T17:32:38;96665.38;;;3.61;100.00
37068;BME280;22982;42.848;25.468;2024-03-08T17:37:40;96675.59;;;3.67;100.00
37068;BME280;22982;42.848;25.468;2024-03-08T17:42:44;96677.44;;;3.63;100.00
37068;BME280;22982;42.848;25.468;2024-03-08T17:47:48;96676.63;;;3.61;100.00
37068;BME280;22982;42.848;25.468;2024-03-08T17:58:16;96665.25;;;3.66;100.00
37068;BME280;22982;42.848;25.468;2024-03-08T18:03:19;96677.97;;;3.75;100.00
37068;BME280;22982;42.848;25.468;2024-03-08T18:08:23;96677.19;;;3.73;100.00
37068;BME280;22982;42.848;25.468;2024-03-08T18:13:25;96670.28;;;3.72;100.00
37068;BME280;22982;42.848;25.468;2024-03-08T18:18:29;96680.38;;;3.82;100.00
37068;BME280;22982;42.848;25.468;2024-03-08T18:23:31;96667.34;;;3.84;100.00
37068;BME280;22982;42.848;25.468;2024-03-08T18:28:34;96675.06;;;3.87;100.00
37068;BME280;22982;42.848;25.468;2024-03-08T18:33:38;96667.59;;;3.75;100.00
37068;BME280;22982;42.848;25.468;2024-03-08T18:38:47;96664.00;;;3.80;100.00
37068;BME280;22982;42.848;25.468;2024-03-08T18:43:50;96669.16;;;3.82;100.00
37068;BME280;22982;42.848;25.468;2024-03-08T18:48:54;96681.31;;;3.80;100.00
37068;BME280;22982;42.848;25.468;2024-03-08T18:53:56;96680.63;;;3.73;100.00
37068;BME280;22982;42.848;25.468;2024-03-08T18:58:59;96684.94;;;3.74;100.00
37068;BME280;22982;42.848;25.468;2024-03-08T19:04:02;96688.59;;;3.66;100.00
37068;BME280;22982;42.848;25.468;2024-03-08T19:09:05;96681.88;;;3.58;100.00
37068;BME280;22982;42.848;25.468;2024-03-08T19:14:11;96683.47;;;3.64;100.00
37068;BME280;22982;42.848;25.468;2024-03-08T19:19:14;96683.34;;;3.69;100.00
37068;BME280;22982;42.848;25.468;2024-03-08T19:24:16;96683.41;;;3.66;100.00
37068;BME280;22982;42.848;25.468;2024-03-08T19:29:19;96684.22;;;3.68;100.00
37068;BME280;22982;42.848;25.468;2024-03-08T19:34:27;96686.66;;;3.74;100.00
37068;BME280;22982;42.848;25.468;2024-03-08T19:39:29;96688.19;;;3.81;100.00
37068;BME280;22982;42.848;25.468;2024-03-08T19:44:32;96673.97;;;3.63;100.00
37068;BME280;22982;42.848;25.468;2024-03-08T19:49:35;96687.97;;;3.56;100.00
37068;BME280;22982;42.848;25.468;2024-03-08T19:54:38;96687.16;;;3.54;100.00
37068;BME280;22982;42.848;25.468;2024-03-08T19:59:41;96685.66;;;3.45;100.00
37068;BME280;22982;42.848;25.468;2024-03-08T20:04:46;96687.97;;;3.56;100.00
37068;BME280;22982;42.848;25.468;2024-03-08T20:09:49;96693.06;;;3.26;100.00
37068;BME280;22982;42.848;25.468;2024-03-08T20:14:52;96689.72;;;3.21;100.00
37068;BME280;22982;42.848;25.468;2024-03-08T20:19:55;96679.69;;;3.41;100.00
37068;BME280;22982;42.848;25.468;2024-03-08T20:25:00;96667.41;;;3.50;100.00
37068;BME280;22982;42.848;25.468;2024-03-08T20:30:03;96666.31;;;3.58;100.00
37068;BME280;22982;42.848;25.468;2024-03-08T20:35:07;96672.25;;;3.29;100.00
37068;BME280;22982;42.848;25.468;2024-03-08T20:40:12;96678.47;;;3.56;100.00
37068;BME280;22982;42.848;25.468;2024-03-08T20:45:16;96673.81;;;3.69;100.00
37068;BME280;22982;42.848;25.468;2024-03-08T20:50:19;96666.16;;;3.64;100.00
37068;BME280;22982;42.848;25.468;2024-03-08T20:55:25;96661.75;;;3.67;100.00
37068;BME280;22982;42.848;25.468;2024-03-08T21:00:29;96668.06;;;3.58;100.00
37068;BME280;22982;42.848;25.468;2024-03-08T21:05:42;96659.84;;;3.42;100.00
37068;BME280;22982;42.848;25.468;2024-03-08T21:10:46;96664.63;;;3.56;100.00
37068;BME280;22982;42.848;25.468;2024-03-08T21:15:50;96662.16;;;3.53;100.00
37068;BME280;22982;42.848;25.468;2024-03-08T21:20:55;96645.50;;;3.61;100.00
37068;BME280;22982;42.848;25.468;2024-03-08T21:25:58;96650.59;;;3.64;100.00
37068;BME280;22982;42.848;25.468;2024-03-08T21:31:03;96653.88;;;3.71;100.00
37068;BME280;22982;42.848;25.468;2024-03-08T21:36:08;96653.22;;;3.63;100.00
37068;BME280;22982;42.848;25.468;2024-03-08T21:41:11;96647.69;;;3.44;100.00
37068;BME280;22982;42.848;25.468;2024-03-08T21:46:14;96648.44;;;3.48;100.00
37068;BME280;22982;42.848;25.468;2024-03-08T21:51:17;96646.69;;;3.15;100.00
37068;BME280;22982;42.848;25.468;2024-03-08T21:56:20;96652.47;;;3.25;100.00
37068;BME280;22982;42.848;25.468;2024-03-08T22:01:23;96639.09;;;3.42;100.00
37068;BME280;22982;42.848;25.468;2024-03-08T22:06:25;96631.16;;;3.48;100.00
37068;BME280;22982;42.848;25.468;2024-03-08T22:11:29;96643.72;;;3.63;100.00
37068;BME280;22982;42.848;25.468;2024-03-08T22:16:33;96652.22;;;3.69;100.00
37068;BME280;22982;42.848;25.468;2024-03-08T22:21:37;96637.63;;;3.64;100.00
37068;BME280;22982;42.848;25.468;2024-03-08T22:26:40;96642.91;;;3.61;100.00
37068;BME280;22982;42.848;25.468;2024-03-08T22:31:43;96650.19;;;3.47;100.00
37068;BME280;22982;42.848;25.468;2024-03-08T22:36:46;96646.50;;;3.21;100.00
37068;BME280;22982;42.848;25.468;2024-03-08T22:41:49;96656.47;;;3.38;100.00
37068;BME280;22982;42.848;25.468;2024-03-08T22:46:52;96639.09;;;3.42;100.00
37068;BME280;22982;42.848;25.468;2024-03-08T22:51:55;96631.09;;;3.50;100.00
37068;BME280;22982;42.848;25.468;2024-03-08T22:56:58;96633.66;;;3.51;100.00
37068;BME280;22982;42.848;25.468;2024-03-08T23:02:07;96647.38;;;3.56;100.00
37068;BME280;22982;42.848;25.468;2024-03-08T23:07:11;96639.09;;;3.42;100.00
37068;BME280;22982;42.848;25.468;2024-03-08T23:12:14;96656.84;;;3.56;100.00
37068;BME280;22982;42.848;25.468;2024-03-08T23:17:17;96647.44;;;3.53;100.00
37068;BME280;22982;42.848;25.468;2024-03-08T23:22:20;96648.13;;;3.60;100.00
37068;BME280;22982;42.848;25.468;2024-03-08T23:27:24;96642.41;;;3.47;100.00
37068;BME280;22982;42.848;25.468;2024-03-08T23:32:26;96626.00;;;3.12;100.00
37068;BME280;22982;42.848;25.468;2024-03-08T23:37:29;96627.94;;;3.38;100.00
37068;BME280;22982;42.848;25.468;2024-03-08T23:42:32;96631.94;;;3.50;100.00
37068;BME280;22982;42.848;25.468;2024-03-08T23:47:35;96613.66;;;3.56;100.00
37068;BME280;22982;42.848;25.468;2024-03-08T23:52:37;96612.66;;;3.60;100.00
37068;BME280;22982;42.848;25.468;2024-03-08T23:57:45;96598.25;;;3.50;100.00
